Time;durP1;ratioP1;P1;durP2;ratioP2;P2;SDS_P1;SDS_P2;PMS_P1;PMS_P2;Temp;Humidity;BMP_temperature;BMP_pressure;BME280_temperature;BME280_humidity;BME280_pressure;Samples;Min_cycle;Max_cycle;Signal;HPM_P1;HPM_P2
2021/01/05 00:00:31;;;;;;;;;;;;;;;8.14;48.25;102105.06;6178398;23;19939;-78
2021/01/05 00:02:58;;;;;;;;;;;;;;;8.16;48.12;102106.81;6151786;23;19929;-78
2021/01/05 00:05:26;;;;;;;;;;;;;;;8.20;48.31;102098.03;6176407;23;19928;-78
2021/01/05 00:07:53;;;;;;;;;;;;;;;8.24;48.07;102102.44;6151406;23;19925;-77
2021/01/05 00:10:21;;;;;;;;;;;;;;;8.28;48.27;102106.84;6173697;23;19932;-78
2021/01/05 00:12:48;;;;;;;;;;;;;;;8.29;47.38;102103.34;6150378;23;19955;-77
2021/01/05 00:15:16;;;;;;;;;;;;;;;8.32;48.27;102113.91;6152280;23;20249;-78
2021/01/05 00:17:43;;;;;;;;;;;;;;;8.31;47.56;102107.75;6176942;23;19924;-77
2021/01/05 00:20:11;;;;;;;;;;;;;;;8.33;47.79;102106.88;6153066;23;19925;-78
2021/01/05 00:22:41;;;;;;;;;;;;;;;8.32;48.41;102095.44;6153233;23;20003;-77
2021/01/05 00:25:08;;;;;;;;;;;;;;;8.32;48.23;102098.06;6148521;23;19968;-78
2021/01/05 00:27:35;;;;;;;;;;;;;;;8.34;48.18;102098.97;6151957;23;20029;-77
2021/01/05 00:30:05;;;;;;;;;;;;;;;8.31;47.61;102094.56;6152503;23;19924;-78
2021/01/05 00:32:32;;;;;;;;;;;;;;;8.28;47.74;102091.91;6177492;23;19924;-77
2021/01/05 00:34:59;;;;;;;;;;;;;;;8.29;48.13;102092.81;6176873;23;19927;-78
2021/01/05 00:37:26;;;;;;;;;;;;;;;8.27;48.09;102090.16;6151554;23;19995;-78
2021/01/05 00:39:54;;;;;;;;;;;;;;;8.27;48.01;102094.53;6151374;23;19925;-78
2021/01/05 00:42:21;;;;;;;;;;;;;;;8.23;48.19;102093.66;6177559;23;19964;-78
2021/01/05 00:44:48;;;;;;;;;;;;;;;8.23;48.11;102085.72;6152651;23;19929;-78
2021/01/05 00:47:15;;;;;;;;;;;;;;;8.21;48.57;102090.13;6154849;23;20408;-77
2021/01/05 00:49:42;;;;;;;;;;;;;;;8.18;48.63;102090.13;6176446;23;19921;-77
2021/01/05 00:52:09;;;;;;;;;;;;;;;8.17;48.36;102093.66;6152826;23;19939;-77
2021/01/05 00:54:37;;;;;;;;;;;;;;;8.18;48.65;102089.25;6149550;23;20297;-77
2021/01/05 00:57:06;;;;;;;;;;;;;;;8.13;48.43;102082.19;6179017;23;19940;-77
2021/01/05 00:59:36;;;;;;;;;;;;;;;8.13;48.11;102090.09;6160528;23;19951;-77
2021/01/05 01:02:04;;;;;;;;;;;;;;;8.12;48.87;102090.09;6176229;23;20544;-77
2021/01/05 01:04:32;;;;;;;;;;;;;;;8.08;48.86;102081.28;6190205;23;19946;-78
2021/01/05 01:06:59;;;;;;;;;;;;;;;8.05;48.53;102085.66;6154821;23;19924;-77
2021/01/05 01:09:28;;;;;;;;;;;;;;;8.03;48.36;102092.69;6179279;23;19943;-77
2021/01/05 01:11:56;;;;;;;;;;;;;;;8.00;48.53;102090.03;6157452;23;19924;-77
2021/01/05 01:14:24;;;;;;;;;;;;;;;7.98;48.94;102090.03;6158705;22;20012;-77
2021/01/05 01:16:51;;;;;;;;;;;;;;;7.97;48.56;102091.78;6157419;23;19931;-78
2021/01/05 01:19:19;;;;;;;;;;;;;;;7.95;48.68;102104.06;6156133;22;19928;-77
2021/01/05 01:21:47;;;;;;;;;;;;;;;7.97;48.65;102104.06;6179478;23;19924;-78
2021/01/05 01:24:15;;;;;;;;;;;;;;;7.92;48.78;102101.44;6153257;23;19950;-77
2021/01/05 01:26:42;;;;;;;;;;;;;;;7.91;48.40;102098.78;6181475;23;19924;-78
2021/01/05 01:29:08;;;;;;;;;;;;;;;7.89;48.88;102106.69;6158062;23;19931;-78
2021/01/05 01:31:36;;;;;;;;;;;;;;;7.89;48.98;102101.44;6182070;23;19958;-78
2021/01/05 01:34:03;;;;;;;;;;;;;;;7.84;48.72;102094.34;6183277;22;19924;-77
2021/01/05 01:36:30;;;;;;;;;;;;;;;7.85;48.78;102102.25;6176761;23;19920;-78
2021/01/05 01:38:57;;;;;;;;;;;;;;;7.82;48.71;102095.22;6153450;23;19970;-78
2021/01/05 01:41:25;;;;;;;;;;;;;;;7.80;48.86;102088.16;6181293;23;19920;-78
2021/01/05 01:43:56;;;;;;;;;;;;;;;7.80;49.31;102088.16;6155756;23;20523;-77
2021/01/05 01:46:25;;;;;;;;;;;;;;;7.80;48.99;102089.06;6157725;23;19956;-78
2021/01/05 01:48:54;;;;;;;;;;;;;;;7.81;48.96;102082.94;6181185;23;20071;-77
2021/01/05 01:51:22;;;;;;;;;;;;;;;7.84;48.87;102083.81;6176154;23;19924;-78
2021/01/05 01:54:27;;;;;;;;;;;;;;;7.86;48.83;102085.56;6155673;23;20209;-77
2021/01/05 01:57:13;;;;;;;;;;;;;;;7.89;49.03;102075.06;6180917;23;19931;-78
2021/01/05 01:59:49;;;;;;;;;;;;;;;7.92;49.05;102082.97;6183346;23;19944;-78
2021/01/05 02:02:34;;;;;;;;;;;;;;;7.94;48.70;102075.06;6181711;23;19932;-77
2021/01/05 02:05:12;;;;;;;;;;;;;;;8.00;49.00;102074.22;6151901;23;20048;-78
2021/01/05 02:07:51;;;;;;;;;;;;;;;8.04;48.81;102073.38;6180760;23;19924;-78
2021/01/05 02:10:36;;;;;;;;;;;;;;;8.08;48.34;102076.03;6154913;22;19930;-78
2021/01/05 02:13:11;;;;;;;;;;;;;;;8.11;48.36;102069.88;6182430;23;19924;-77
2021/01/05 02:15:43;;;;;;;;;;;;;;;8.12;48.29;102069.88;6157058;23;19954;-77
2021/01/05 02:18:27;;;;;;;;;;;;;;;8.09;48.34;102061.97;6178874;23;19924;-77
2021/01/05 02:20:58;;;;;;;;;;;;;;;8.11;48.69;102075.16;6178968;23;19952;-77
2021/01/05 02:23:43;;;;;;;;;;;;;;;8.12;48.54;102075.16;6156361;23;19924;-78
2021/01/05 02:26:18;;;;;;;;;;;;;;;8.11;48.42;102068.13;6156557;22;19931;-78
2021/01/05 02:28:50;;;;;;;;;;;;;;;8.09;48.55;102075.16;6182501;22;19950;-78
2021/01/05 02:31:25;;;;;;;;;;;;;;;8.09;48.41;102077.78;6157451;23;19924;-78
2021/01/05 02:33:59;;;;;;;;;;;;;;;8.08;48.64;102068.13;6151724;23;19951;-78
2021/01/05 02:36:47;;;;;;;;;;;;;;;8.09;48.78;102071.63;6154173;23;20007;-78
2021/01/05 02:39:54;;;;;;;;;;;;;;;8.07;49.18;102063.72;6182295;23;19931;-78
2021/01/05 02:42:51;;;;;;;;;;;;;;;8.09;49.15;102071.63;6183202;23;20504;-78
2021/01/05 02:45:39;;;;;;;;;;;;;;;8.06;48.39;102064.56;6183950;23;19931;-77
2021/01/05 02:48:40;;;;;;;;;;;;;;;8.05;48.89;102054.94;6179962;23;20752;-78
2021/01/05 02:51:35;;;;;;;;;;;;;;;8.02;48.90;102054.03;6181958;23;19934;-77
2021/01/05 02:54:42;;;;;;;;;;;;;;;7.96;48.75;102055.78;6182129;23;20571;-77
2021/01/05 02:57:41;;;;;;;;;;;;;;;7.97;48.97;102047.00;6193567;23;19935;-78
2021/01/05 03:00:47;;;;;;;;;;;;;;;7.95;48.94;102054.00;6189654;23;20276;-77
2021/01/05 03:03:39;;;;;;;;;;;;;;;7.92;49.19;102053.13;6180027;23;19931;-77
2021/01/05 03:06:36;;;;;;;;;;;;;;;7.86;48.76;102061.88;6183132;23;19927;-78
2021/01/05 03:09:34;;;;;;;;;;;;;;;7.83;49.36;102064.50;6183116;23;19946;-77
2021/01/05 03:12:27;;;;;;;;;;;;;;;7.82;49.25;102054.81;6185852;23;19934;-77
2021/01/05 03:15:25;;;;;;;;;;;;;;;7.82;48.95;102049.56;6181890;23;20000;-77
2021/01/05 03:18:15;;;;;;;;;;;;;;;7.78;49.18;102053.91;6180773;23;20284;-78
2021/01/05 03:21:03;;;;;;;;;;;;;;;7.76;49.46;102060.06;6183122;23;19970;-78
2021/01/05 03:23:50;;;;;;;;;;;;;;;7.73;49.37;102054.78;6183120;23;19935;-77
2021/01/05 03:26:37;;;;;;;;;;;;;;;7.70;49.01;102053.00;6184665;23;19951;-78
2021/01/05 03:29:39;;;;;;;;;;;;;;;7.66;49.31;102056.50;6149343;23;19928;-77
2021/01/05 03:32:27;;;;;;;;;;;;;;;7.62;49.36;102047.69;6134833;23;20147;-78
2021/01/05 03:35:13;;;;;;;;;;;;;;;7.59;49.38;102047.69;6183561;23;20640;-78
2021/01/05 03:37:59;;;;;;;;;;;;;;;7.58;49.04;102045.06;6182856;23;19931;-78
2021/01/05 03:40:45;;;;;;;;;;;;;;;7.56;49.66;102055.53;6184820;23;19947;-78
2021/01/05 03:43:31;;;;;;;;;;;;;;;7.54;49.26;102044.16;6182484;23;19931;-78
2021/01/05 03:46:17;;;;;;;;;;;;;;;7.55;49.20;102047.66;6180740;23;20399;-78
2021/01/05 03:49:03;;;;;;;;;;;;;;;7.57;49.56;102043.28;6184595;23;19947;-78
2021/01/05 03:51:49;;;;;;;;;;;;;;;7.59;49.49;102036.25;6184170;23;19969;-78
2021/01/05 03:54:35;;;;;;;;;;;;;;;7.62;49.18;102031.03;6182515;23;19950;-78
2021/01/05 03:57:21;;;;;;;;;;;;;;;7.67;48.90;102031.03;6182050;23;19969;-78
2021/01/05 04:00:13;;;;;;;;;;;;;;;7.70;48.80;102024.03;6177719;23;20962;-77
2021/01/05 04:02:41;;;;;;;;;;;;;;;7.76;48.93;102033.72;6152487;23;20171;-78
2021/01/05 04:05:09;;;;;;;;;;;;;;;7.76;48.98;102037.25;6177218;23;19921;-77
2021/01/05 04:07:36;;;;;;;;;;;;;;;7.82;48.52;102045.16;6178420;23;20275;-78
2021/01/05 04:10:05;;;;;;;;;;;;;;;7.87;48.61;102044.31;6178520;23;19926;-77
2021/01/05 04:12:32;;;;;;;;;;;;;;;7.86;48.53;102047.81;6150826;23;20245;-78
2021/01/05 04:14:59;;;;;;;;;;;;;;;7.90;49.14;102049.59;6174201;23;19936;-77
2021/01/05 04:17:27;;;;;;;;;;;;;;;7.90;48.77;102047.81;6153299;23;19924;-78
2021/01/05 04:19:54;;;;;;;;;;;;;;;7.93;48.59;102049.59;6177971;23;19924;-77
2021/01/05 04:22:23;;;;;;;;;;;;;;;7.91;48.57;102057.50;6155442;23;19950;-78
2021/01/05 04:24:50;;;;;;;;;;;;;;;7.93;48.50;102052.22;6152663;22;19924;-77
2021/01/05 04:27:18;;;;;;;;;;;;;;;7.92;48.78;102056.63;6175549;23;19944;-78
2021/01/05 04:29:45;;;;;;;;;;;;;;;7.93;48.51;102058.41;6177968;23;19924;-78
2021/01/05 04:32:12;;;;;;;;;;;;;;;7.94;48.79;102048.72;6182873;23;19935;-78
2021/01/05 04:34:38;;;;;;;;;;;;;;;7.92;48.76;102048.72;6182547;23;20181;-78
2021/01/05 04:37:06;;;;;;;;;;;;;;;7.90;48.71;102047.81;6184506;23;19925;-78
2021/01/05 04:39:33;;;;;;;;;;;;;;;7.88;48.98;102053.97;6183792;23;19946;-78
2021/01/05 04:42:04;;;;;;;;;;;;;;;7.89;49.02;102061.00;6178737;23;19924;-78
2021/01/05 04:44:38;;;;;;;;;;;;;;;7.87;49.25;102061.00;6178615;23;19981;-77
2021/01/05 04:47:16;;;;;;;;;;;;;;;7.88;49.09;102064.50;6157043;23;19931;-78
2021/01/05 04:50:02;;;;;;;;;;;;;;;7.87;48.73;102070.66;6179992;22;19972;-77
2021/01/05 04:52:32;;;;;;;;;;;;;;;7.85;49.08;102067.13;6180795;23;19928;-78
2021/01/05 04:55:02;;;;;;;;;;;;;;;7.85;49.20;102062.72;6183382;23;19924;-78
2021/01/05 04:57:31;;;;;;;;;;;;;;;7.82;49.16;102073.25;6183722;23;20192;-77
2021/01/05 04:59:59;;;;;;;;;;;;;;;7.82;49.06;102068.00;6188526;23;19944;-77
2021/01/05 05:02:49;;;;;;;;;;;;;;;7.82;48.81;102078.53;6180847;23;19940;-78
2021/01/05 05:05:29;;;;;;;;;;;;;;;7.78;49.17;102072.34;6182818;23;19924;-80
2021/01/05 05:08:03;;;;;;;;;;;;;;;7.74;48.98;102070.59;6182008;23;19954;-79
2021/01/05 05:10:34;;;;;;;;;;;;;;;7.72;49.71;102064.44;6179237;23;19928;-78
2021/01/05 05:13:03;;;;;;;;;;;;;;;7.71;49.13;102064.41;6178847;23;19924;-78
2021/01/05 05:15:36;;;;;;;;;;;;;;;7.67;49.64;102067.91;6181801;23;19925;-78
2021/01/05 05:18:08;;;;;;;;;;;;;;;7.66;49.34;102069.66;6156338;23;19927;-78
2021/01/05 05:20:44;;;;;;;;;;;;;;;7.61;49.53;102067.00;6155195;22;19924;-78
2021/01/05 05:23:26;;;;;;;;;;;;;;;7.60;49.42;102067.00;6181042;23;19921;-79
2021/01/05 05:26:02;;;;;;;;;;;;;;;7.59;49.45;102073.13;6176276;23;19930;-78
2021/01/05 05:28:30;;;;;;;;;;;;;;;7.56;49.53;102073.13;6182614;23;19924;-79
2021/01/05 05:31:02;;;;;;;;;;;;;;;7.51;49.80;102066.94;6156914;23;19924;-79
2021/01/05 05:33:30;;;;;;;;;;;;;;;7.48;49.86;102063.44;6181035;22;19948;-78
2021/01/05 05:36:08;;;;;;;;;;;;;;;7.47;49.74;102066.94;6155018;23;19940;-79
2021/01/05 05:38:53;;;;;;;;;;;;;;;7.44;49.65;102069.53;6176603;23;19928;-79
2021/01/05 05:41:28;;;;;;;;;;;;;;;7.44;49.71;102061.63;6152098;23;19930;-78
2021/01/05 05:44:10;;;;;;;;;;;;;;;7.44;50.11;102061.63;6183192;22;19990;-79
2021/01/05 05:46:40;;;;;;;;;;;;;;;7.44;49.74;102058.13;6181885;22;19920;-78
2021/01/05 05:49:23;;;;;;;;;;;;;;;7.45;49.86;102062.53;6181565;23;20416;-78
2021/01/05 05:51:53;;;;;;;;;;;;;;;7.48;49.61;102062.53;6181160;23;19928;-79
2021/01/05 05:54:21;;;;;;;;;;;;;;;7.51;49.57;102066.94;6175513;23;19924;-80
2021/01/05 05:56:58;;;;;;;;;;;;;;;7.52;49.63;102068.72;6179790;23;20205;-79
2021/01/05 05:59:31;;;;;;;;;;;;;;;7.52;49.67;102063.44;6182600;23;19924;-79
2021/01/05 06:01:58;;;;;;;;;;;;;;;7.57;49.77;102062.59;6181663;23;20292;-78
2021/01/05 06:04:25;;;;;;;;;;;;;;;7.58;49.81;102069.63;6181317;23;19920;-79
2021/01/05 06:06:52;;;;;;;;;;;;;;;7.63;49.34;102054.72;6180464;23;19924;-78
2021/01/05 06:09:19;;;;;;;;;;;;;;;7.68;49.38;102057.38;6177428;23;19924;-80
2021/01/05 06:11:56;;;;;;;;;;;;;;;7.71;49.04;102065.31;6155603;23;19946;-79
2021/01/05 06:14:23;;;;;;;;;;;;;;;7.73;48.90;102060.03;6182148;23;19934;-79
2021/01/05 06:16:50;;;;;;;;;;;;;;;7.76;49.05;102062.69;6182064;23;19936;-79
2021/01/05 06:19:18;;;;;;;;;;;;;;;7.75;49.08;102061.81;6181849;23;19925;-79
2021/01/05 06:21:45;;;;;;;;;;;;;;;7.77;48.91;102070.63;6178101;23;19968;-78
2021/01/05 06:24:12;;;;;;;;;;;;;;;7.78;49.46;102066.22;6177372;23;19968;-79
2021/01/05 06:26:39;;;;;;;;;;;;;;;7.77;49.05;102053.91;6183689;23;19924;-79
2021/01/05 06:29:06;;;;;;;;;;;;;;;7.76;49.04;102071.50;6184336;23;19924;-79
2021/01/05 06:31:33;;;;;;;;;;;;;;;7.74;49.49;102070.59;6183344;23;19972;-79
2021/01/05 06:34:00;;;;;;;;;;;;;;;7.76;48.92;102067.94;6181282;23;19928;-79
2021/01/05 06:36:28;;;;;;;;;;;;;;;7.74;49.36;102065.31;6150874;23;19924;-78
2021/01/05 06:38:55;;;;;;;;;;;;;;;7.74;49.65;102060.06;6179707;23;19924;-78
2021/01/05 06:41:22;;;;;;;;;;;;;;;7.74;49.52;102069.72;6181366;23;19924;-79
2021/01/05 06:43:49;;;;;;;;;;;;;;;7.71;49.17;102072.31;6182261;23;20211;-78
2021/01/05 06:46:16;;;;;;;;;;;;;;;7.71;49.59;102070.59;6155614;23;19924;-80
2021/01/05 06:48:43;;;;;;;;;;;;;;;7.68;49.33;102067.03;6179326;23;19954;-78
2021/01/05 06:51:10;;;;;;;;;;;;;;;7.66;49.37;102064.41;6177536;23;19928;-78
2021/01/05 06:53:39;;;;;;;;;;;;;;;7.65;49.56;102067.91;6183806;23;19924;-78
2021/01/05 06:56:06;;;;;;;;;;;;;;;7.62;49.54;102068.75;6181247;23;19924;-78
2021/01/05 06:58:33;;;;;;;;;;;;;;;7.62;49.31;102081.06;6181111;23;19924;-78
2021/01/05 07:00:59;;;;;;;;;;;;;;;7.59;49.33;102067.84;6187212;23;19924;-78
2021/01/05 07:03:26;;;;;;;;;;;;;;;7.57;49.34;102066.97;6181017;23;19947;-79
2021/01/05 07:05:53;;;;;;;;;;;;;;;7.57;49.53;102065.22;6152382;23;19924;-80
2021/01/05 07:08:21;;;;;;;;;;;;;;;7.56;49.92;102070.47;6182631;23;19931;-78
2021/01/05 07:10:50;;;;;;;;;;;;;;;7.52;49.44;102074.84;6182748;23;19944;-79
2021/01/05 07:13:16;;;;;;;;;;;;;;;7.52;49.76;102073.97;6183933;23;19940;-79
2021/01/05 07:15:43;;;;;;;;;;;;;;;7.51;49.87;102072.19;6155396;23;19929;-78
2021/01/05 07:18:10;;;;;;;;;;;;;;;7.47;49.70;102073.94;6180432;23;19974;-79
2021/01/05 07:20:49;;;;;;;;;;;;;;;7.45;49.70;102071.28;6175871;23;19920;-79
2021/01/05 07:23:16;;;;;;;;;;;;;;;7.43;49.62;102067.78;6182170;23;20347;-79
2021/01/05 07:25:43;;;;;;;;;;;;;;;7.41;49.46;102068.63;6181646;23;20296;-78
2021/01/05 07:28:12;;;;;;;;;;;;;;;7.39;50.01;102070.38;6157325;23;19960;-78
2021/01/05 07:30:39;;;;;;;;;;;;;;;7.40;49.89;102072.13;6182131;23;19924;-79
2021/01/05 07:33:06;;;;;;;;;;;;;;;7.37;49.75;102067.72;6179521;23;20274;-79
2021/01/05 07:35:33;;;;;;;;;;;;;;;7.38;49.64;102071.22;6177982;23;19921;-79
2021/01/05 07:37:59;;;;;;;;;;;;;;;7.36;49.80;102076.50;6181207;23;19924;-80
2021/01/05 07:40:27;;;;;;;;;;;;;;;7.35;49.46;102072.09;6182540;23;20412;-80
2021/01/05 07:42:54;;;;;;;;;;;;;;;7.35;49.90;102079.97;6155201;23;19924;-79
2021/01/05 07:45:22;;;;;;;;;;;;;;;7.37;49.56;102085.25;6156966;23;19936;-82
2021/01/05 07:47:50;;;;;;;;;;;;;;;7.39;49.34;102086.16;6152176;23;19952;-80
2021/01/05 07:50:18;;;;;;;;;;;;;;;7.41;49.60;102081.81;6181144;23;19924;-78
2021/01/05 07:52:45;;;;;;;;;;;;;;;7.45;49.25;102086.22;6183727;23;19924;-81
2021/01/05 07:55:13;;;;;;;;;;;;;;;7.47;49.34;102090.63;6183982;23;19931;-80
2021/01/05 07:57:40;;;;;;;;;;;;;;;7.54;49.16;102090.66;6154255;23;19928;-79
2021/01/05 08:00:08;;;;;;;;;;;;;;;7.58;48.85;102088.06;6177751;23;19931;-80
2021/01/05 08:02:42;;;;;;;;;;;;;;;7.67;49.05;102089.88;6177676;23;19950;-80
2021/01/05 08:05:11;;;;;;;;;;;;;;;7.74;48.81;102090.78;6180053;23;19924;-80
2021/01/05 08:07:38;;;;;;;;;;;;;;;7.78;48.63;102085.53;6153507;22;19931;-79
2021/01/05 08:10:05;;;;;;;;;;;;;;;7.85;48.44;102090.84;6179425;22;19951;-78
2021/01/05 08:12:32;;;;;;;;;;;;;;;7.88;48.44;102089.13;6178699;23;19924;-78
2021/01/05 08:14:59;;;;;;;;;;;;;;;7.95;48.56;102098.78;6178091;23;19940;-79
2021/01/05 08:17:26;;;;;;;;;;;;;;;8.04;48.36;102090.06;6154830;23;20250;-77
2021/01/05 08:19:54;;;;;;;;;;;;;;;8.09;48.32;102090.06;6182184;23;19948;-78
2021/01/05 08:22:21;;;;;;;;;;;;;;;8.13;48.00;102086.59;6158747;23;19981;-78
2021/01/05 08:24:48;;;;;;;;;;;;;;;8.17;47.84;102083.09;6183558;23;20091;-80
2021/01/05 08:27:15;;;;;;;;;;;;;;;8.19;48.34;102091.88;6185335;23;19970;-78
2021/01/05 08:29:42;;;;;;;;;;;;;;;8.23;47.70;102093.66;6181266;23;19952;-79
2021/01/05 08:32:09;;;;;;;;;;;;;;;8.31;47.93;102093.69;6180156;23;19924;-78
2021/01/05 08:34:36;;;;;;;;;;;;;;;8.39;47.68;102094.59;6181845;23;19927;-78
2021/01/05 08:37:04;;;;;;;;;;;;;;;8.52;46.89;102090.25;6155402;23;19932;-78
2021/01/05 08:39:31;;;;;;;;;;;;;;;8.52;47.08;102092.88;6181143;23;19985;-78
2021/01/05 08:41:58;;;;;;;;;;;;;;;8.64;47.02;102099.94;6181946;23;20319;-81
2021/01/05 08:44:25;;;;;;;;;;;;;;;8.75;46.51;102098.22;6172714;23;19935;-81
2021/01/05 08:46:59;;;;;;;;;;;;;;;8.84;46.71;102100.00;6180093;23;19924;-79
2021/01/05 08:49:26;;;;;;;;;;;;;;;8.95;46.23;102092.09;6179232;23;19924;-77
2021/01/05 08:51:54;;;;;;;;;;;;;;;9.15;45.69;102097.38;6155297;22;19950;-79
2021/01/05 08:54:23;;;;;;;;;;;;;;;9.22;45.44;102098.25;6153039;23;19982;-76
2021/01/05 08:56:54;;;;;;;;;;;;;;;9.34;45.72;102093.00;6155145;23;19924;-77
2021/01/05 08:59:21;;;;;;;;;;;;;;;9.39;44.71;102096.50;6184604;23;19931;-76
2021/01/05 09:01:48;;;;;;;;;;;;;;;9.52;44.72;102091.19;6161524;23;19951;-77
2021/01/05 09:04:15;;;;;;;;;;;;;;;9.43;45.14;102097.41;6156359;23;19946;-77
2021/01/05 09:06:46;;;;;;;;;;;;;;;9.44;45.08;102109.69;6181604;23;20022;-79
2021/01/05 09:09:13;;;;;;;;;;;;;;;9.70;44.73;102098.22;6182457;23;19971;-77
2021/01/05 09:11:41;;;;;;;;;;;;;;;9.95;44.29;102101.66;6152369;23;19967;-78
2021/01/05 09:14:08;;;;;;;;;;;;;;;10.13;43.70;102095.44;6178942;23;19924;-77
2021/01/05 09:16:35;;;;;;;;;;;;;;;10.17;44.04;102098.97;6182159;23;20090;-77
2021/01/05 09:19:02;;;;;;;;;;;;;;;9.83;44.82;102113.16;6154896;23;19944;-78
2021/01/05 09:21:30;;;;;;;;;;;;;;;9.55;45.50;102107.06;6180595;23;19935;-77
2021/01/05 09:24:02;;;;;;;;;;;;;;;9.44;45.12;102110.59;6180432;23;19931;-80
2021/01/05 09:26:30;;;;;;;;;;;;;;;9.36;45.58;102101.78;6178004;23;19924;-77
2021/01/05 09:29:01;;;;;;;;;;;;;;;9.38;45.81;102113.22;6181700;23;20260;-78
2021/01/05 09:31:28;;;;;;;;;;;;;;;9.45;45.57;102101.75;6156722;23;19920;-77
2021/01/05 09:33:55;;;;;;;;;;;;;;;9.50;45.58;102101.78;6182240;23;19924;-77
2021/01/05 09:36:29;;;;;;;;;;;;;;;9.49;45.29;102094.72;6181069;23;19925;-81
2021/01/05 09:38:56;;;;;;;;;;;;;;;9.49;45.42;102101.78;6154858;22;20326;-78
2021/01/05 09:41:25;;;;;;;;;;;;;;;9.55;45.66;102096.50;6178800;23;19955;-80
2021/01/05 09:43:53;;;;;;;;;;;;;;;9.58;45.86;102097.34;6178424;23;19924;-78
2021/01/05 09:46:21;;;;;;;;;;;;;;;9.67;45.35;102106.16;6155580;23;19924;-76
2021/01/05 09:48:51;;;;;;;;;;;;;;;9.72;45.01;102112.31;6181925;23;20189;-83
2021/01/05 09:51:22;;;;;;;;;;;;;;;9.68;45.07;102102.59;6180202;23;19964;-76
2021/01/05 09:54:08;;;;;;;;;;;;;;;9.74;45.28;102100.84;6175424;23;19924;-76
2021/01/05 09:56:35;;;;;;;;;;;;;;;9.73;45.12;102103.47;6176986;23;19925;-79
2021/01/05 09:59:03;;;;;;;;;;;;;;;9.70;45.48;102103.50;6180463;23;19928;-77
2021/01/05 10:01:32;;;;;;;;;;;;;;;9.62;45.20;102099.09;6181574;23;19923;-77
2021/01/05 10:03:58;;;;;;;;;;;;;;;9.55;45.37;102105.28;6180328;23;19943;-78
2021/01/05 10:06:29;;;;;;;;;;;;;;;9.50;45.79;102104.41;6180165;23;19952;-77
2021/01/05 10:08:56;;;;;;;;;;;;;;;9.43;45.89;102116.75;6179042;23;19920;-77
2021/01/05 10:11:29;;;;;;;;;;;;;;;9.41;46.03;102107.94;6179200;23;19927;-77
2021/01/05 10:13:56;;;;;;;;;;;;;;;9.44;45.53;102107.06;6181564;23;20295;-75
2021/01/05 10:16:23;;;;;;;;;;;;;;;9.51;46.01;102098.25;6156321;23;19924;-77
2021/01/05 10:18:51;;;;;;;;;;;;;;;9.60;45.33;102106.16;6179182;23;19931;-77
2021/01/05 10:21:18;;;;;;;;;;;;;;;9.67;45.66;102098.22;6154357;23;19931;-79
2021/01/05 10:23:45;;;;;;;;;;;;;;;9.74;45.59;102100.84;6173147;23;19932;-77
2021/01/05 10:26:12;;;;;;;;;;;;;;;9.85;45.52;102097.28;6149451;23;19924;-77
2021/01/05 10:28:39;;;;;;;;;;;;;;;9.89;45.13;102096.38;6181302;23;19970;-77
2021/01/05 10:31:06;;;;;;;;;;;;;;;9.95;44.90;102091.09;6154319;23;19980;-78
2021/01/05 10:33:33;;;;;;;;;;;;;;;9.93;44.87;102096.38;6182775;23;20269;-80
2021/01/05 10:36:01;;;;;;;;;;;;;;;9.90;45.19;102091.13;6178715;23;19934;-79
2021/01/05 10:38:29;;;;;;;;;;;;;;;9.73;45.60;102100.84;6147988;23;19955;-78
2021/01/05 10:40:56;;;;;;;;;;;;;;;9.65;45.17;102090.28;6150854;23;20276;-76
2021/01/05 10:43:23;;;;;;;;;;;;;;;9.52;46.03;102092.09;6181304;23;19920;-78
2021/01/05 10:45:50;;;;;;;;;;;;;;;9.52;45.92;102099.13;6181614;23;19924;-77
2021/01/05 10:48:17;;;;;;;;;;;;;;;9.52;45.89;102093.84;6178404;23;20655;-81
2021/01/05 10:50:44;;;;;;;;;;;;;;;9.52;46.23;102094.75;6151853;22;19993;-76
2021/01/05 10:53:14;;;;;;;;;;;;;;;9.52;45.66;102093.84;6171286;23;19982;-80
2021/01/05 10:55:41;;;;;;;;;;;;;;;9.49;45.95;102099.13;6150381;23;19924;-77
2021/01/05 10:58:08;;;;;;;;;;;;;;;9.50;45.57;102087.69;6155120;23;19944;-79
2021/01/05 11:00:34;;;;;;;;;;;;;;;9.52;46.57;102083.28;6184939;23;19946;-78
2021/01/05 11:03:01;;;;;;;;;;;;;;;9.53;46.16;102079.75;6179913;23;19937;-79
2021/01/05 11:05:29;;;;;;;;;;;;;;;9.56;46.27;102075.34;6152702;23;19924;-79
2021/01/05 11:07:56;;;;;;;;;;;;;;;9.56;46.10;102071.81;6149412;23;20349;-77
2021/01/05 11:10:24;;;;;;;;;;;;;;;9.56;45.62;102064.78;6151616;23;19942;-76
2021/01/05 11:12:50;;;;;;;;;;;;;;;9.55;45.96;102065.66;6180052;23;20764;-76
2021/01/05 11:15:18;;;;;;;;;;;;;;;9.55;46.50;102059.50;6180707;23;19999;-78
2021/01/05 11:17:45;;;;;;;;;;;;;;;9.51;45.77;102069.19;6183095;23;19940;-74
2021/01/05 11:20:14;;;;;;;;;;;;;;;9.60;46.12;102069.19;6153305;23;19942;-75
2021/01/05 11:22:42;;;;;;;;;;;;;;;9.63;46.20;102065.66;6176817;22;19929;-75
2021/01/05 11:25:09;;;;;;;;;;;;;;;9.62;45.72;102059.47;6155206;23;19951;-75
2021/01/05 11:27:37;;;;;;;;;;;;;;;9.57;46.19;102060.38;6157116;23;19954;-75
2021/01/05 11:30:05;;;;;;;;;;;;;;;9.47;46.49;102054.25;6156204;23;19924;-76
2021/01/05 11:32:32;;;;;;;;;;;;;;;9.45;46.37;102059.50;6180868;23;20324;-76
2021/01/05 11:34:59;;;;;;;;;;;;;;;9.38;46.38;102068.34;6178047;23;19925;-76
2021/01/05 11:37:26;;;;;;;;;;;;;;;9.36;46.77;102061.28;6177831;23;19927;-75
2021/01/05 11:39:53;;;;;;;;;;;;;;;9.35;46.55;102059.53;6181775;23;19959;-76
2021/01/05 11:42:21;;;;;;;;;;;;;;;9.31;46.20;102058.63;6181372;23;19928;-76
2021/01/05 11:44:50;;;;;;;;;;;;;;;9.30;47.00;102056.91;6156981;23;19935;-76
2021/01/05 11:47:18;;;;;;;;;;;;;;;9.29;47.06;102056.00;6183715;23;19924;-76
2021/01/05 11:49:45;;;;;;;;;;;;;;;9.28;46.60;102061.28;6178510;23;19924;-76
2021/01/05 11:52:12;;;;;;;;;;;;;;;9.26;46.97;102048.09;6181463;23;20275;-76
2021/01/05 11:54:39;;;;;;;;;;;;;;;9.27;46.82;102052.50;6156672;23;19925;-76
2021/01/05 11:57:06;;;;;;;;;;;;;;;9.28;46.59;102043.72;6184648;23;19924;-76
2021/01/05 11:59:33;;;;;;;;;;;;;;;9.28;46.58;102053.38;6185255;23;19931;-76
2021/01/05 12:02:01;;;;;;;;;;;;;;;9.21;47.02;102049.00;6183188;23;19954;-76
2021/01/05 12:04:28;;;;;;;;;;;;;;;9.24;47.01;102039.28;6178150;23;20150;-75
2021/01/05 12:06:56;;;;;;;;;;;;;;;9.20;46.82;102039.31;6178672;23;20349;-76
2021/01/05 12:09:23;;;;;;;;;;;;;;;9.19;47.40;102037.53;6157501;23;19925;-76
2021/01/05 12:11:54;;;;;;;;;;;;;;;9.22;47.00;102029.59;6180610;23;19945;-76
2021/01/05 12:14:21;;;;;;;;;;;;;;;9.24;47.27;102025.22;6184039;23;19967;-76
2021/01/05 12:16:48;;;;;;;;;;;;;;;9.22;47.17;102025.22;6156228;23;19945;-76
2021/01/05 12:19:18;;;;;;;;;;;;;;;9.25;46.76;102025.22;6176513;23;20272;-76
2021/01/05 12:21:49;;;;;;;;;;;;;;;9.24;46.35;102018.16;6181591;23;19931;-76
2021/01/05 12:24:19;;;;;;;;;;;;;;;9.20;46.90;102016.41;6182434;23;19927;-76
2021/01/05 12:26:47;;;;;;;;;;;;;;;9.19;46.95;102011.13;6180821;23;19946;-76
2021/01/05 12:29:16;;;;;;;;;;;;;;;9.17;47.04;102016.44;6185192;23;19924;-76
2021/01/05 12:31:44;;;;;;;;;;;;;;;9.16;46.92;102011.16;6153847;23;19924;-76
2021/01/05 12:34:11;;;;;;;;;;;;;;;9.11;47.15;102014.69;6178330;23;19939;-76
2021/01/05 12:36:40;;;;;;;;;;;;;;;9.10;47.27;102015.56;6181148;23;19951;-76
2021/01/05 12:39:08;;;;;;;;;;;;;;;9.12;47.08;102011.13;6182271;22;19925;-76
2021/01/05 12:41:36;;;;;;;;;;;;;;;9.10;47.47;102014.66;6183207;23;19920;-76
2021/01/05 12:44:04;;;;;;;;;;;;;;;9.09;47.57;102010.28;6183382;23;19924;-76
2021/01/05 12:46:32;;;;;;;;;;;;;;;9.08;47.27;102012.03;6153437;23;20430;-76
2021/01/05 12:48:59;;;;;;;;;;;;;;;9.08;47.61;102017.31;6152668;23;20191;-76
2021/01/05 12:51:35;;;;;;;;;;;;;;;9.05;47.37;102019.97;6182489;23;20416;-76
2021/01/05 12:54:04;;;;;;;;;;;;;;;9.00;47.78;102016.44;6183074;23;19932;-75
2021/01/05 12:56:31;;;;;;;;;;;;;;;8.98;47.30;102020.81;6182087;23;19935;-75
2021/01/05 12:58:57;;;;;;;;;;;;;;;8.97;47.67;102025.25;6153926;22;20646;-78
2021/01/05 13:01:25;;;;;;;;;;;;;;;8.92;47.82;102019.06;6158627;23;20026;-76
2021/01/05 13:03:52;;;;;;;;;;;;;;;8.89;47.40;102016.44;6153516;23;19925;-77
2021/01/05 13:06:19;;;;;;;;;;;;;;;8.85;48.21;102022.63;6154536;23;19953;-76
2021/01/05 13:08:47;;;;;;;;;;;;;;;8.83;47.69;102016.44;6132224;23;19934;-76